createdAt,value
2023-09-06T00:01:53.500Z,75.50
2023-09-06T00:04:20.159Z,75.04
2023-09-06T00:06:46.766Z,75.66
2023-09-06T00:09:13.349Z,75.11
2023-09-06T00:11:40.899Z,75.03
2023-09-06T00:14:07.576Z,75.22
2023-09-06T00:16:34.056Z,74.35
2023-09-06T00:19:01.564Z,73.87
2023-09-06T00:21:28.692Z,74.79
2023-09-06T00:23:55.486Z,74.67
2023-09-06T00:26:22.016Z,74.40
2023-09-06T00:28:48.619Z,74.56
2023-09-06T00:31:15.269Z,75.08
2023-09-06T00:33:42.966Z,74.69
2023-09-06T00:36:09.461Z,75.11
2023-09-06T00:38:35.967Z,74.49
2023-09-06T00:41:02.469Z,74.79
2023-09-06T00:43:29.927Z,74.93
2023-09-06T00:45:57.187Z,74.71
2023-09-06T00:48:26.805Z,74.92
2023-09-06T00:50:55.612Z,75.14
2023-09-06T00:53:23.807Z,74.83
2023-09-06T00:55:53.625Z,74.92
2023-09-06T00:58:23.628Z,74.81
2023-09-06T01:00:51.095Z,74.80
2023-09-06T01:03:19.639Z,74.89
2023-09-06T01:05:50.226Z,74.86
2023-09-06T01:08:21.419Z,75.20
2023-09-06T01:10:48.064Z,74.95
2023-09-06T01:13:14.552Z,74.89
2023-09-06T01:15:44.212Z,74.97
2023-09-06T01:18:11.252Z,74.65
2023-09-06T01:20:54.081Z,75.00
2023-09-06T01:23:39.850Z,74.99
2023-09-06T01:26:07.008Z,74.53
2023-09-06T01:28:34.138Z,74.89
2023-09-06T01:31:01.627Z,75.12
2023-09-06T01:33:31.632Z,75.06
2023-09-06T01:35:58.553Z,75.11
2023-09-06T01:38:25.459Z,74.86
2023-09-06T01:40:53.135Z,74.70
2023-09-06T01:43:19.732Z,75.10
2023-09-06T01:45:52.547Z,75.11
2023-09-06T01:48:20.165Z,74.93
2023-09-06T01:50:46.869Z,75.67
2023-09-06T01:53:16.179Z,75.55
2023-09-06T01:55:43.588Z,75.72
2023-09-06T01:58:14.020Z,75.15
2023-09-06T02:00:40.752Z,75.38
2023-09-06T02:03:08.803Z,75.32
2023-09-06T02:05:36.310Z,75.19
2023-09-06T02:08:05.306Z,75.98
2023-09-06T02:10:31.764Z,75.79
2023-09-06T02:12:58.314Z,75.71
2023-09-06T02:15:24.833Z,75.55
2023-09-06T02:17:51.396Z,75.26
2023-09-06T02:20:22.403Z,76.02
2023-09-06T02:22:53.548Z,76.27
2023-09-06T02:25:24.966Z,76.20
2023-09-06T02:27:51.956Z,76.16
2023-09-06T02:30:18.504Z,75.89
2023-09-06T02:32:45.241Z,75.95
2023-09-06T02:35:14.711Z,75.80
2023-09-06T02:37:41.131Z,75.77
2023-09-06T02:40:15.137Z,75.96
2023-09-06T02:42:42.193Z,76.03
2023-09-06T02:45:13.230Z,75.81
2023-09-06T02:47:49.371Z,76.45
2023-09-06T02:50:18.102Z,75.94
2023-09-06T02:52:48.026Z,75.94
2023-09-06T02:55:15.113Z,75.97
2023-09-06T02:57:42.666Z,76.33
2023-09-06T03:00:26.553Z,76.26
2023-09-06T03:02:57.150Z,76.23
2023-09-06T03:05:23.739Z,75.71
2023-09-06T03:07:50.700Z,76.09
2023-09-06T03:10:20.840Z,76.17
2023-09-06T03:12:48.752Z,76.18
2023-09-06T03:15:16.685Z,76.01
2023-09-06T03:17:47.974Z,76.36
2023-09-06T03:20:22.960Z,76.51
2023-09-06T03:22:52.529Z,76.11
2023-09-06T03:25:19.090Z,76.26
2023-09-06T03:27:46.122Z,76.28
2023-09-06T03:30:16.380Z,76.39
2023-09-06T03:32:43.960Z,76.03
2023-09-06T03:35:10.754Z,76.79
2023-09-06T03:37:37.272Z,76.84
2023-09-06T03:40:13.874Z,76.30
2023-09-06T03:42:42.211Z,76.47
2023-09-06T03:45:16.533Z,76.72
2023-09-06T03:47:43.249Z,76.99
2023-09-06T03:50:10.267Z,76.73
2023-09-06T03:52:37.356Z,76.98
2023-09-06T03:55:04.344Z,76.90
2023-09-06T03:57:30.891Z,76.95
2023-09-06T03:59:57.414Z,76.78
2023-09-06T04:02:28.412Z,76.89
2023-09-06T04:04:55.425Z,76.64
2023-09-06T04:07:25.631Z,76.70
2023-09-06T04:09:57.492Z,77.11
2023-09-06T04:12:24.077Z,77.21
2023-09-06T04:14:50.700Z,77.36
2023-09-06T04:17:18.545Z,77.16
2023-09-06T04:19:46.144Z,77.06
2023-09-06T04:22:14.186Z,77.06
2023-09-06T04:24:40.687Z,77.19
2023-09-06T04:27:07.192Z,77.01
2023-09-06T04:29:33.725Z,77.13
2023-09-06T04:32:00.348Z,77.36
2023-09-06T04:34:27.747Z,77.19
2023-09-06T04:36:54.261Z,77.33
2023-09-06T04:39:21.475Z,77.37
2023-09-06T04:41:47.999Z,77.26
2023-09-06T04:44:14.517Z,76.81
2023-09-06T04:46:41.078Z,77.30
2023-09-06T04:49:08.253Z,77.30
2023-09-06T04:51:34.774Z,77.72
2023-09-06T04:54:01.478Z,77.66
2023-09-06T04:56:28.022Z,77.48
2023-09-06T04:58:54.560Z,77.49
2023-09-06T05:01:21.057Z,77.33
2023-09-06T05:03:47.658Z,77.78
2023-09-06T05:06:14.708Z,77.75
2023-09-06T05:08:41.334Z,77.65
2023-09-06T05:11:08.033Z,77.68
2023-09-06T05:13:34.622Z,77.82
2023-09-06T05:16:02.654Z,77.71
2023-09-06T05:18:29.577Z,77.72
2023-09-06T05:20:57.130Z,77.69
2023-09-06T05:23:23.676Z,77.77
2023-09-06T05:25:52.205Z,77.67
2023-09-06T05:28:20.042Z,77.85
2023-09-06T05:30:47.718Z,77.94
2023-09-06T05:33:15.216Z,77.79
2023-09-06T05:35:42.638Z,78.35
2023-09-06T05:38:10.441Z,78.40
2023-09-06T05:40:37.148Z,78.61
2023-09-06T05:43:05.178Z,78.54
2023-09-06T05:45:31.863Z,78.86
2023-09-06T05:47:58.619Z,78.51
2023-09-06T05:50:25.280Z,78.97
2023-09-06T05:52:51.768Z,78.92
2023-09-06T05:55:18.493Z,78.89
2023-09-06T05:57:45.251Z,78.97
2023-09-06T06:00:16.900Z,78.77
2023-09-06T06:02:46.216Z,78.72
2023-09-06T06:05:13.450Z,79.05
2023-09-06T06:07:40.658Z,78.80
2023-09-06T06:10:10.877Z,78.90
2023-09-06T06:12:41.136Z,78.44
2023-09-06T06:15:10.405Z,77.87
2023-09-06T06:17:37.965Z,77.74
2023-09-06T06:20:07.921Z,78.05
2023-09-06T06:22:39.063Z,77.81
2023-09-06T06:25:08.216Z,77.62
2023-09-06T06:27:35.229Z,77.45
2023-09-06T06:30:02.042Z,77.49
2023-09-06T06:32:28.633Z,77.68
2023-09-06T06:34:58.045Z,77.27
2023-09-06T06:37:24.624Z,77.04
2023-09-06T06:39:51.236Z,77.53
2023-09-06T06:42:18.038Z,76.64
2023-09-06T06:44:48.474Z,76.70
2023-09-06T06:47:15.230Z,77.34
2023-09-06T06:49:41.848Z,76.03
2023-09-06T06:52:08.488Z,76.39
2023-09-06T06:54:35.742Z,76.50
2023-09-06T06:57:03.046Z,76.69
2023-09-06T06:59:29.629Z,76.50
2023-09-06T07:01:56.305Z,76.17
2023-09-06T07:04:22.998Z,76.15
2023-09-06T07:06:49.512Z,76.14
2023-09-06T07:09:15.996Z,76.28
2023-09-06T07:11:42.461Z,75.65
2023-09-06T07:14:09.030Z,75.93
2023-09-06T07:16:35.762Z,76.21
2023-09-06T07:19:03.733Z,75.68
2023-09-06T07:21:31.255Z,76.26
2023-09-06T07:23:57.710Z,75.13
2023-09-06T07:26:24.375Z,75.39
2023-09-06T07:28:51.237Z,76.04
2023-09-06T07:31:19.042Z,75.47
2023-09-06T07:33:45.954Z,75.17
2023-09-06T07:36:13.360Z,75.50
2023-09-06T07:38:39.901Z,75.40
2023-09-06T07:41:08.419Z,74.33
2023-09-06T07:43:37.388Z,74.68
2023-09-06T07:46:05.345Z,74.22
2023-09-06T07:48:32.491Z,74.21
2023-09-06T07:51:00.415Z,72.88
2023-09-06T07:53:27.725Z,72.65
2023-09-06T07:55:56.455Z,72.29
2023-09-06T07:58:23.591Z,72.16
2023-09-06T08:00:59.167Z,69.14
2023-09-06T08:03:34.765Z,68.91
2023-09-06T08:06:01.345Z,67.34
2023-09-06T08:08:28.158Z,61.77
2023-09-06T08:10:54.824Z,60.92
2023-09-06T08:13:21.401Z,60.28
2023-09-06T08:15:47.957Z,59.86
2023-09-06T08:18:14.562Z,59.62
2023-09-06T08:20:41.157Z,58.27
2023-09-06T08:23:07.649Z,56.73
2023-09-06T08:25:34.927Z,56.30
2023-09-06T08:28:01.653Z,54.78
2023-09-06T08:30:28.612Z,52.84
2023-09-06T08:32:57.089Z,51.51
2023-09-06T08:35:24.592Z,49.37
2023-09-06T08:37:51.623Z,49.67
2023-09-06T08:40:19.798Z,48.51
2023-09-06T08:42:46.641Z,46.32
2023-09-06T08:45:13.129Z,46.54
2023-09-06T08:47:41.191Z,47.09
2023-09-06T08:50:11.924Z,44.82
2023-09-06T08:52:45.528Z,45.03
2023-09-06T08:55:12.609Z,44.28
2023-09-06T08:57:40.254Z,44.36
2023-09-06T09:00:11.015Z,42.41
2023-09-06T09:02:41.771Z,42.97
2023-09-06T09:05:20.298Z,43.31
2023-09-06T09:07:49.281Z,44.44
2023-09-06T09:10:15.797Z,42.38
2023-09-06T09:12:42.710Z,41.01
2023-09-06T09:15:22.743Z,42.49
2023-09-06T09:20:22.256Z,38.84
2023-09-06T09:22:51.435Z,41.71
2023-09-06T09:25:24.302Z,40.06
2023-09-06T09:27:57.610Z,41.88
2023-09-06T09:30:25.384Z,38.79
2023-09-06T09:33:03.501Z,39.24
2023-09-06T09:35:33.019Z,41.47
2023-09-06T09:38:02.653Z,42.29
2023-09-06T09:43:05.699Z,40.05
2023-09-06T09:45:46.927Z,41.01
2023-09-06T09:48:16.267Z,38.71
2023-09-06T09:50:45.271Z,40.66
2023-09-06T09:55:49.182Z,41.30
2023-09-06T09:58:17.400Z,40.63
2023-09-06T10:00:48.569Z,40.63
2023-09-06T10:03:16.015Z,41.75
2023-09-06T10:05:43.709Z,40.53
2023-09-06T10:08:11.435Z,43.12
2023-09-06T10:10:41.823Z,42.37
2023-09-06T10:13:09.649Z,43.35
2023-09-06T10:15:37.731Z,41.93
2023-09-06T10:18:05.804Z,43.46
2023-09-06T10:20:33.533Z,42.24
2023-09-06T10:23:01.112Z,45.19
2023-09-06T10:25:27.907Z,45.01
2023-09-06T10:27:56.290Z,45.60
2023-09-06T10:30:45.526Z,46.99
2023-09-06T10:33:34.973Z,45.87
2023-09-06T10:36:07.561Z,46.91
2023-09-06T10:38:36.721Z,45.65
2023-09-06T10:41:07.919Z,46.66
2023-09-06T10:43:55.372Z,49.23
2023-09-06T10:46:27.876Z,48.77
2023-09-06T10:49:30.542Z,46.66
2023-09-06T10:52:09.367Z,50.01
2023-09-06T10:54:42.742Z,48.53
2023-09-06T10:57:11.412Z,47.95
2023-09-06T10:59:38.239Z,48.98
2023-09-06T11:02:22.468Z,49.12
2023-09-06T11:04:52.028Z,46.70
2023-09-06T11:07:19.044Z,47.22
2023-09-06T11:09:46.393Z,49.20
2023-09-06T11:12:13.864Z,47.21
2023-09-06T11:14:41.766Z,49.61
2023-09-06T11:17:08.511Z,50.12
2023-09-06T11:19:37.929Z,47.71
2023-09-06T11:22:09.368Z,47.77
2023-09-06T11:24:37.051Z,49.52
2023-09-06T11:27:23.284Z,49.47
2023-09-06T11:29:58.722Z,49.35
2023-09-06T11:32:25.455Z,49.14
2023-09-06T11:34:52.127Z,50.75
2023-09-06T11:37:19.779Z,51.27
2023-09-06T11:39:47.059Z,50.77
2023-09-06T11:42:16.607Z,51.35
2023-09-06T11:44:49.010Z,50.42
2023-09-06T11:47:20.168Z,49.17
2023-09-06T11:49:47.371Z,49.17
2023-09-06T11:52:17.179Z,49.17
2023-09-06T11:54:46.049Z,49.95
2023-09-06T11:57:26.919Z,49.20
2023-09-06T11:59:54.809Z,51.80
2023-09-06T12:02:22.445Z,49.25
2023-09-06T12:04:54.284Z,48.45
2023-09-06T12:07:24.681Z,47.73
2023-09-06T12:09:52.048Z,47.81
2023-09-06T12:12:18.584Z,47.01
2023-09-06T12:14:45.509Z,46.70
2023-09-06T12:17:12.671Z,47.16
2023-09-06T12:19:39.262Z,48.23
2023-09-06T12:22:06.551Z,49.00
2023-09-06T12:24:34.994Z,47.86
2023-09-06T12:27:02.051Z,47.86
2023-09-06T12:29:28.692Z,49.45
2023-09-06T12:31:55.242Z,46.38
2023-09-06T12:34:22.720Z,45.69
2023-09-06T12:36:49.269Z,47.84
2023-09-06T12:39:16.313Z,45.95
2023-09-06T12:41:43.509Z,45.21
2023-09-06T12:44:10.092Z,45.69
2023-09-06T12:46:36.685Z,43.94
2023-09-06T12:49:05.513Z,44.09
2023-09-06T12:51:32.115Z,45.30
2023-09-06T12:53:58.592Z,44.81
2023-09-06T12:56:25.131Z,44.49
2023-09-06T12:58:51.596Z,42.37
2023-09-06T13:01:18.099Z,41.71
2023-09-06T13:03:47.611Z,42.40
2023-09-06T13:06:14.308Z,42.19
2023-09-06T13:08:42.779Z,42.81
2023-09-06T13:11:09.470Z,42.09
2023-09-06T13:13:36.825Z,41.67
2023-09-06T13:16:05.901Z,41.28
2023-09-06T13:18:32.789Z,42.92
2023-09-06T13:21:01.050Z,41.72
2023-09-06T13:23:27.553Z,42.57
2023-09-06T13:25:54.046Z,42.95
2023-09-06T13:28:20.546Z,40.55
2023-09-06T13:30:48.779Z,37.72
2023-09-06T13:33:15.426Z,40.98
2023-09-06T13:35:42.012Z,40.02
2023-09-06T13:38:11.422Z,40.33
2023-09-06T13:40:37.957Z,40.75
2023-09-06T13:43:04.491Z,38.94
2023-09-06T13:45:31.150Z,41.07
2023-09-06T13:47:57.917Z,40.36
2023-09-06T13:50:24.580Z,38.85
2023-09-06T13:52:51.180Z,38.87
2023-09-06T13:55:17.754Z,38.82
2023-09-06T13:57:46.774Z,40.07
2023-09-06T14:00:13.751Z,39.55
2023-09-06T14:02:40.454Z,37.39
2023-09-06T14:05:07.619Z,37.28
2023-09-06T14:07:34.272Z,37.86
2023-09-06T14:10:00.841Z,37.94
2023-09-06T14:12:28.094Z,39.37
2023-09-06T14:14:57.608Z,40.57
2023-09-06T14:17:24.219Z,38.15
2023-09-06T14:19:50.937Z,37.37
2023-09-06T14:22:17.441Z,37.07
2023-09-06T14:24:43.925Z,36.12
2023-09-06T14:27:10.500Z,37.53
2023-09-06T14:29:37.068Z,42.91
2023-09-06T14:32:03.793Z,43.82
2023-09-06T14:34:30.261Z,43.95
2023-09-06T14:36:56.836Z,44.48
2023-09-06T14:39:24.420Z,44.34
2023-09-06T14:41:51.069Z,45.10
2023-09-06T14:44:18.625Z,44.85
2023-09-06T14:46:45.356Z,45.33
2023-09-06T14:49:13.368Z,46.08
2023-09-06T14:51:40.139Z,45.10
2023-09-06T14:54:07.442Z,45.22
2023-09-06T14:56:37.422Z,44.65
2023-09-06T14:59:04.655Z,44.54
2023-09-06T15:01:31.296Z,44.69
2023-09-06T15:03:58.190Z,45.06
2023-09-06T15:06:24.764Z,46.05
2023-09-06T15:08:57.730Z,46.16
2023-09-06T15:11:24.390Z,44.89
2023-09-06T15:13:50.912Z,45.52
2023-09-06T15:16:17.438Z,45.80
2023-09-06T15:18:45.980Z,46.71
2023-09-06T15:21:12.606Z,44.85
2023-09-06T15:23:39.212Z,46.00
2023-09-06T15:26:07.509Z,46.19
2023-09-06T15:28:34.107Z,47.43
2023-09-06T15:31:00.758Z,46.67
2023-09-06T15:33:27.442Z,46.70
2023-09-06T15:35:55.733Z,46.12
2023-09-06T15:38:22.392Z,45.96
2023-09-06T15:40:49.843Z,45.80
2023-09-06T15:43:16.495Z,45.41
2023-09-06T15:45:43.348Z,45.09
2023-09-06T15:48:09.851Z,45.91
2023-09-06T15:50:36.452Z,45.40
2023-09-06T15:53:03.136Z,45.86
2023-09-06T15:55:29.742Z,46.16
2023-09-06T15:57:56.438Z,45.82
2023-09-06T16:02:52.613Z,47.95
2023-09-06T16:05:19.567Z,46.63
2023-09-06T16:07:47.133Z,44.94
2023-09-06T16:10:13.700Z,46.29
2023-09-06T16:12:41.828Z,46.66
2023-09-06T16:15:08.959Z,46.95
2023-09-06T16:17:35.461Z,47.56
2023-09-06T16:20:02.086Z,46.90
2023-09-06T16:22:28.564Z,48.43
2023-09-06T16:24:55.857Z,47.40
2023-09-06T16:27:23.083Z,47.58
2023-09-06T16:29:50.174Z,47.79
2023-09-06T16:32:16.858Z,48.20
2023-09-06T16:34:43.988Z,48.36
2023-09-06T16:37:10.572Z,48.66
2023-09-06T16:39:37.183Z,49.09
2023-09-06T16:42:03.912Z,48.00
2023-09-06T16:44:31.269Z,48.98
2023-09-06T16:46:59.649Z,49.12
2023-09-06T16:49:26.831Z,48.53
2023-09-06T16:51:53.611Z,49.80
2023-09-06T16:54:20.452Z,50.76
2023-09-06T16:56:47.413Z,51.95
2023-09-06T16:59:14.165Z,50.14
2023-09-06T17:01:40.930Z,53.34
2023-09-06T17:04:10.626Z,54.53
2023-09-06T17:06:37.176Z,54.89
2023-09-06T17:09:09.579Z,54.74
2023-09-06T17:11:44.033Z,55.73
2023-09-06T17:14:12.237Z,56.32
2023-09-06T17:16:39.026Z,57.17
2023-09-06T17:19:10.058Z,58.04
2023-09-06T17:21:39.815Z,58.28
2023-09-06T17:24:08.301Z,58.61
2023-09-06T17:26:37.569Z,58.85
2023-09-06T17:29:07.390Z,59.48
2023-09-06T17:31:37.166Z,59.61
2023-09-06T17:34:03.786Z,60.42
2023-09-06T17:36:30.397Z,60.62
2023-09-06T17:38:59.717Z,60.84
2023-09-06T17:41:26.569Z,61.26
2023-09-06T17:43:53.190Z,61.19
2023-09-06T17:46:26.212Z,61.95
2023-09-06T17:48:54.204Z,61.91
2023-09-06T17:51:21.709Z,62.16
2023-09-06T17:53:48.784Z,62.91
2023-09-06T17:56:17.529Z,63.15
2023-09-06T17:58:45.671Z,63.39
2023-09-06T18:01:15.212Z,63.85
2023-09-06T18:03:44.750Z,63.96
2023-09-06T18:06:12.788Z,64.24
2023-09-06T18:08:43.635Z,63.78
2023-09-06T18:11:10.646Z,64.37
2023-09-06T18:13:40.591Z,63.85
2023-09-06T18:16:08.479Z,64.19
2023-09-06T18:18:35.216Z,64.46
2023-09-06T18:21:05.141Z,64.20
2023-09-06T18:23:33.132Z,64.89
2023-09-06T18:26:01.802Z,64.59
2023-09-06T18:28:29.055Z,65.30
2023-09-06T18:30:56.318Z,65.56
2023-09-06T18:33:24.026Z,65.27
2023-09-06T18:35:54.608Z,65.00
2023-09-06T18:38:21.901Z,64.83
2023-09-06T18:40:57.554Z,65.38
2023-09-06T18:43:24.287Z,65.45
2023-09-06T18:45:56.436Z,65.40
2023-09-06T18:48:23.539Z,65.45
2023-09-06T18:50:51.194Z,65.22
2023-09-06T18:53:18.428Z,65.75
2023-09-06T18:55:48.595Z,65.44
2023-09-06T18:58:18.249Z,66.20
2023-09-06T19:00:44.986Z,65.96
2023-09-06T19:03:14.880Z,65.92
2023-09-06T19:05:42.852Z,65.86
2023-09-06T19:08:15.429Z,66.27
2023-09-06T19:10:43.311Z,65.88
2023-09-06T19:13:11.203Z,65.44
2023-09-06T19:15:37.705Z,65.61
2023-09-06T19:18:04.866Z,65.41
2023-09-06T19:20:31.477Z,65.88
2023-09-06T19:23:05.984Z,66.43
2023-09-06T19:25:32.590Z,66.30
2023-09-06T19:27:59.122Z,65.88
2023-09-06T19:30:26.755Z,65.61
2023-09-06T19:32:53.334Z,65.73
2023-09-06T19:35:20.063Z,65.78
2023-09-06T19:37:46.748Z,66.29
2023-09-06T19:40:13.282Z,66.54
2023-09-06T19:42:39.819Z,66.83
2023-09-06T19:45:06.939Z,66.15
2023-09-06T19:47:33.990Z,66.52
2023-09-06T19:50:00.841Z,66.84
2023-09-06T19:52:27.551Z,66.85
2023-09-06T19:55:01.401Z,67.51
2023-09-06T19:57:30.705Z,66.93
2023-09-06T19:59:58.275Z,67.58
2023-09-06T20:02:25.075Z,67.01
2023-09-06T20:04:51.898Z,67.14
2023-09-06T20:07:18.596Z,67.28
2023-09-06T20:09:45.091Z,67.18
2023-09-06T20:12:11.653Z,67.14
2023-09-06T20:14:38.140Z,67.39
2023-09-06T20:17:04.907Z,66.84
2023-09-06T20:19:32.342Z,66.66
2023-09-06T20:21:58.973Z,66.94
2023-09-06T20:24:25.628Z,67.31
2023-09-06T20:26:52.348Z,67.30
2023-09-06T20:29:19.124Z,67.18
2023-09-06T20:31:45.885Z,67.21
2023-09-06T20:34:13.467Z,67.53
2023-09-06T20:36:40.051Z,67.29
2023-09-06T20:39:07.979Z,67.95
2023-09-06T20:41:36.274Z,67.71
2023-09-06T20:44:03.166Z,67.50
2023-09-06T20:46:29.761Z,67.65
2023-09-06T20:48:56.516Z,67.62
2023-09-06T20:51:23.755Z,67.93
2023-09-06T20:53:51.880Z,68.20
2023-09-06T20:56:18.620Z,68.69
2023-09-06T20:58:45.515Z,68.85
2023-09-06T21:01:17.013Z,68.86
2023-09-06T21:03:44.502Z,68.87
2023-09-06T21:06:11.964Z,68.88
2023-09-06T21:08:38.810Z,69.33
2023-09-06T21:11:05.430Z,68.89
2023-09-06T21:13:33.339Z,69.82
2023-09-06T21:16:02.259Z,69.45
2023-09-06T21:18:30.016Z,69.17
2023-09-06T21:20:57.455Z,69.74
2023-09-06T21:23:24.048Z,70.07
2023-09-06T21:25:53.283Z,70.21
2023-09-06T21:28:20.096Z,70.01
2023-09-06T21:30:48.429Z,69.79
2023-09-06T21:33:15.757Z,70.36
2023-09-06T21:35:44.025Z,70.54
2023-09-06T21:38:11.298Z,70.43
2023-09-06T21:40:42.283Z,70.69
2023-09-06T21:43:17.770Z,70.66
2023-09-06T21:45:45.254Z,70.66
2023-09-06T21:48:12.040Z,70.70
2023-09-06T21:50:41.175Z,71.26
2023-09-06T21:53:07.905Z,71.33
2023-09-06T21:55:34.546Z,71.34
2023-09-06T21:58:09.820Z,71.58
2023-09-06T22:00:37.528Z,71.38
2023-09-06T22:03:04.558Z,71.07
2023-09-06T22:05:31.173Z,71.77
2023-09-06T22:07:57.725Z,71.41
2023-09-06T22:10:24.287Z,71.21
2023-09-06T22:12:50.912Z,71.51
2023-09-06T22:15:17.540Z,71.76
2023-09-06T22:17:44.128Z,71.70
2023-09-06T22:20:11.335Z,71.88
2023-09-06T22:22:40.327Z,71.49
2023-09-06T22:25:07.680Z,71.86
2023-09-06T22:27:34.699Z,72.10
2023-09-06T22:30:01.876Z,72.17
2023-09-06T22:32:28.564Z,72.22
2023-09-06T22:34:55.291Z,72.56
2023-09-06T22:37:21.875Z,72.39
2023-09-06T22:39:48.633Z,72.17
2023-09-06T22:42:15.259Z,72.44
2023-09-06T22:44:42.003Z,72.53
2023-09-06T22:47:10.149Z,72.41
2023-09-06T22:49:38.696Z,72.84
2023-09-06T22:52:07.154Z,73.06
2023-09-06T22:54:36.837Z,72.73
2023-09-06T22:57:04.516Z,72.50
2023-09-06T22:59:31.464Z,72.78
2023-09-06T23:01:58.265Z,72.45
2023-09-06T23:04:24.911Z,72.52
2023-09-06T23:06:51.436Z,72.89
2023-09-06T23:09:20.133Z,72.87
2023-09-06T23:11:51.171Z,72.83
2023-09-06T23:14:19.298Z,73.04
2023-09-06T23:16:49.186Z,73.19
2023-09-06T23:19:21.770Z,73.17
2023-09-06T23:21:50.639Z,72.90
2023-09-06T23:24:18.731Z,73.49
2023-09-06T23:26:47.689Z,73.75
2023-09-06T23:29:17.450Z,73.79
2023-09-06T23:31:54.321Z,73.83
2023-09-06T23:34:31.383Z,73.59
2023-09-06T23:36:59.163Z,73.72
2023-09-06T23:39:29.440Z,74.04
2023-09-06T23:41:57.980Z,73.59
2023-09-06T23:44:25.265Z,73.77
2023-09-06T23:46:52.046Z,74.12
2023-09-06T23:49:21.124Z,73.53
2023-09-06T23:51:48.280Z,74.24
2023-09-06T23:54:15.290Z,74.16
2023-09-06T23:56:42.083Z,74.09
2023-09-06T23:59:09.014Z,73.09
